Time;durP1;ratioP1;P1;durP2;ratioP2;P2;SDS_P1;SDS_P2;PMS_P1;PMS_P2;Temp;Humidity;BMP_temperature;BMP_pressure;BME280_temperature;BME280_humidity;BME280_pressure;Samples;Min_cycle;Max_cycle;Signal;HPM_P1;HPM_P2
2022/07/09 00:00:26;;;;;;;3.97;1.50;;;15.70;99.90;;;;;;5039078;28;20185;-79
2022/07/09 00:02:52;;;;;;;2.28;1.60;;;15.70;99.90;;;;;;5038683;28;20659;-79
2022/07/09 00:05:17;;;;;;;4.45;1.50;;;15.70;99.90;;;;;;5056558;28;20213;-79
2022/07/09 00:07:43;;;;;;;3.58;1.70;;;15.70;99.90;;;;;;5039852;28;20209;-79
2022/07/09 00:10:10;;;;;;;3.67;1.65;;;15.60;99.90;;;;;;5038482;28;20174;-79
2022/07/09 00:12:36;;;;;;;2.53;1.50;;;15.60;99.90;;;;;;5039498;28;20178;-79
2022/07/09 00:15:02;;;;;;;5.75;1.95;;;15.60;99.90;;;;;;5037830;28;20212;-79
2022/07/09 00:17:31;;;;;;;2.60;1.63;;;15.60;99.90;;;;;;5038633;28;20178;-79
2022/07/09 00:19:57;;;;;;;3.97;1.67;;;15.60;99.90;;;;;;5039200;28;20536;-79
2022/07/09 00:22:22;;;;;;;2.72;1.40;;;15.60;99.90;;;;;;5038759;28;20185;-79
2022/07/09 00:24:48;;;;;;;3.50;1.70;;;15.60;99.90;;;;;;5039331;28;20206;-79
2022/07/09 00:27:14;;;;;;;2.38;1.50;;;15.50;99.90;;;;;;5038806;28;20236;-79
2022/07/09 00:29:40;;;;;;;1.98;1.45;;;15.50;99.90;;;;;;5056708;28;20154;-79
2022/07/09 00:32:08;;;;;;;5.38;1.45;;;15.50;99.90;;;;;;5038328;28;20274;-79
2022/07/09 00:34:34;;;;;;;4.80;1.77;;;15.50;99.90;;;;;;5056253;28;20244;-79
2022/07/09 00:37:00;;;;;;;4.07;1.80;;;15.40;99.90;;;;;;5038095;28;20175;-79
2022/07/09 00:39:26;;;;;;;2.50;1.65;;;15.40;99.90;;;;;;5038455;28;20182;-79
2022/07/09 00:42:05;;;;;;;3.90;1.83;;;15.40;99.90;;;;;;5038596;28;20187;-79
2022/07/09 00:44:30;;;;;;;3.90;1.60;;;15.40;99.90;;;;;;5038394;28;20243;-79
2022/07/09 00:46:56;;;;;;;3.17;1.73;;;15.40;99.90;;;;;;5038305;28;20179;-79
2022/07/09 00:49:22;;;;;;;1.83;1.33;;;15.40;99.90;;;;;;5038983;28;20170;-79
2022/07/09 00:51:48;;;;;;;4.88;1.75;;;15.30;99.90;;;;;;5038971;28;20175;-79
2022/07/09 00:54:14;;;;;;;3.75;1.75;;;15.20;99.90;;;;;;5037805;28;20268;-79
2022/07/09 00:56:40;;;;;;;4.72;1.45;;;15.20;99.90;;;;;;5055890;28;20583;-79
2022/07/09 00:59:10;;;;;;;3.50;1.60;;;15.30;99.90;;;;;;5038609;28;20182;-79
2022/07/09 01:01:36;;;;;;;2.22;1.60;;;15.20;99.90;;;;;;5038691;28;20174;-79
2022/07/09 01:04:01;;;;;;;1.58;1.30;;;15.30;99.90;;;;;;5055508;28;20252;-79
2022/07/09 01:06:27;;;;;;;2.78;1.70;;;15.40;99.90;;;;;;5038320;28;20178;-79
2022/07/09 01:08:53;;;;;;;2.92;1.60;;;15.40;99.90;;;;;;5040006;28;20265;-79
2022/07/09 01:11:18;;;;;;;2.22;1.65;;;15.40;99.90;;;;;;5041272;28;20174;-79
2022/07/09 01:13:44;;;;;;;4.30;1.70;;;15.40;99.90;;;;;;5042631;28;20201;-79
2022/07/09 01:16:16;;;;;;;2.08;1.60;;;15.50;99.90;;;;;;5042770;28;20225;-79
2022/07/09 01:18:46;;;;;;;3.22;1.80;;;15.50;99.90;;;;;;5042319;28;20185;-79
2022/07/09 01:21:15;;;;;;;3.33;1.52;;;15.50;99.90;;;;;;5060376;28;20320;-79
2022/07/09 01:23:40;;;;;;;2.72;1.63;;;15.50;99.90;;;;;;5043212;28;20237;-79
2022/07/09 01:26:07;;;;;;;3.08;1.60;;;15.50;99.90;;;;;;5043807;28;20228;-79
2022/07/09 01:28:32;;;;;;;3.75;1.77;;;15.50;99.90;;;;;;5060148;28;20186;-79
2022/07/09 01:30:59;;;;;;;5.22;1.65;;;15.40;99.90;;;;;;5042733;28;20181;-79
2022/07/09 01:33:25;;;;;;;8.95;1.90;;;15.30;99.90;;;;;;5042494;28;20610;-79
2022/07/09 01:35:51;;;;;;;9.43;2.03;;;15.20;99.90;;;;;;5042836;28;20213;-79
2022/07/09 01:38:16;;;;;;;4.78;1.70;;;15.20;99.90;;;;;;5041435;28;20552;-79
2022/07/09 01:40:42;;;;;;;2.90;1.60;;;15.20;99.90;;;;;;5042770;28;20217;-79
2022/07/09 01:43:07;;;;;;;3.28;1.75;;;15.20;99.90;;;;;;5041293;28;20182;-79
2022/07/09 01:45:33;;;;;;;2.40;1.52;;;15.20;99.90;;;;;;5042027;28;20196;-79
2022/07/09 01:47:59;;;;;;;4.15;1.90;;;15.20;99.90;;;;;;5041846;28;20178;-79
2022/07/09 01:50:24;;;;;;;3.67;1.90;;;15.10;99.90;;;;;;5059907;28;20178;-79
2022/07/09 01:52:50;;;;;;;3.90;1.90;;;15.10;99.90;;;;;;5041592;28;20184;-79
2022/07/09 01:55:16;;;;;;;3.47;1.83;;;15.00;99.90;;;;;;5059782;28;20197;-79
2022/07/09 01:57:42;;;;;;;2.90;1.75;;;15.00;99.90;;;;;;5041442;28;20273;-79
2022/07/09 02:00:08;;;;;;;3.67;1.70;;;14.90;99.90;;;;;;5040812;28;20265;-79
2022/07/09 02:02:34;;;;;;;4.43;1.98;;;14.90;99.90;;;;;;5041297;28;20270;-79
2022/07/09 02:04:59;;;;;;;2.95;1.73;;;14.90;99.90;;;;;;5058307;28;20229;-79
2022/07/09 02:07:25;;;;;;;1.50;1.40;;;15.00;99.90;;;;;;5042251;28;20174;-79
2022/07/09 02:09:51;;;;;;;5.97;1.70;;;15.10;99.90;;;;;;5059521;28;20253;-79
2022/07/09 02:12:17;;;;;;;3.13;1.80;;;15.10;99.90;;;;;;5041326;28;20178;-79
2022/07/09 02:14:43;;;;;;;4.45;2.00;;;15.10;99.90;;;;;;5040851;28;20247;-79
2022/07/09 02:17:08;;;;;;;2.42;1.70;;;15.00;99.90;;;;;;5040699;28;20178;-79
2022/07/09 02:19:34;;;;;;;3.85;1.95;;;15.20;99.90;;;;;;5040722;28;20280;-79
2022/07/09 02:22:00;;;;;;;2.28;1.90;;;15.20;99.90;;;;;;5040662;28;20189;-79
2022/07/09 02:24:25;;;;;;;3.38;1.70;;;15.10;99.90;;;;;;5040339;28;20264;-79
2022/07/09 02:26:51;;;;;;;7.00;1.90;;;15.10;99.90;;;;;;5040428;28;20282;-79
2022/07/09 02:29:16;;;;;;;2.97;1.60;;;15.20;99.90;;;;;;5040577;28;20228;-79
2022/07/09 02:31:42;;;;;;;2.53;1.75;;;15.20;99.90;;;;;;5040100;28;20181;-79
2022/07/09 02:34:08;;;;;;;4.50;1.80;;;15.20;99.90;;;;;;5039811;28;20229;-79
2022/07/09 02:36:33;;;;;;;4.32;2.00;;;15.20;99.90;;;;;;5039532;28;20210;-79
2022/07/09 02:38:59;;;;;;;2.53;1.80;;;15.10;99.90;;;;;;5039812;28;20179;-79
2022/07/09 02:41:24;;;;;;;3.90;1.80;;;15.10;99.90;;;;;;5040648;28;20189;-79
2022/07/09 02:43:50;;;;;;;3.35;1.88;;;15.10;99.90;;;;;;5058814;28;20241;-79
2022/07/09 02:46:16;;;;;;;3.20;1.70;;;15.20;99.90;;;;;;5040601;28;20200;-79
2022/07/09 02:48:42;;;;;;;3.58;1.67;;;15.10;99.90;;;;;;5058362;28;20170;-79
2022/07/09 02:51:07;;;;;;;2.13;1.65;;;15.00;99.90;;;;;;5039515;28;20177;-79
2022/07/09 02:53:33;;;;;;;4.40;1.80;;;15.00;99.90;;;;;;5039151;28;20213;-79
2022/07/09 02:55:58;;;;;;;5.50;2.45;;;15.00;99.90;;;;;;5057530;28;20667;-79
2022/07/09 02:58:24;;;;;;;6.90;1.70;;;15.00;99.90;;;;;;5039130;28;20221;-79
2022/07/09 03:00:49;;;;;;;2.13;1.60;;;15.00;99.90;;;;;;5039689;28;20173;-79
2022/07/09 03:03:16;;;;;;;3.90;1.88;;;15.00;99.90;;;;;;5056977;28;20696;-79
2022/07/09 03:05:41;;;;;;;2.00;1.73;;;15.10;99.90;;;;;;5039481;28;20194;-79
2022/07/09 03:08:08;;;;;;;3.75;2.17;;;15.10;99.90;;;;;;5039523;28;20174;-79
2022/07/09 03:10:34;;;;;;;3.63;1.88;;;15.10;99.90;;;;;;5039169;28;20201;-79
2022/07/09 03:13:00;;;;;;;5.70;1.90;;;15.10;99.90;;;;;;5057300;28;20568;-79
2022/07/09 03:15:26;;;;;;;5.25;1.90;;;15.10;99.90;;;;;;5039232;28;20198;-79
2022/07/09 03:17:51;;;;;;;2.15;1.75;;;15.10;99.90;;;;;;5038964;28;20256;-79
2022/07/09 03:20:17;;;;;;;3.28;1.92;;;15.00;99.90;;;;;;5039184;28;20182;-79
2022/07/09 03:22:42;;;;;;;5.55;1.80;;;15.00;99.90;;;;;;5038451;28;20206;-79
2022/07/09 03:25:09;;;;;;;2.13;1.92;;;15.00;99.90;;;;;;5038206;28;20244;-79
2022/07/09 03:27:35;;;;;;;1.95;1.67;;;15.10;99.90;;;;;;5038561;28;20222;-79
2022/07/09 03:30:02;;;;;;;4.22;2.10;;;15.10;99.90;;;;;;5039617;28;20177;-79
2022/07/09 03:32:28;;;;;;;4.55;1.80;;;15.00;99.90;;;;;;5039278;28;20178;-79
2022/07/09 03:34:53;;;;;;;2.55;1.75;;;15.10;99.90;;;;;;5038604;28;20205;-79
2022/07/09 03:37:20;;;;;;;3.63;1.85;;;15.00;99.90;;;;;;5039231;28;20174;-79
2022/07/09 03:39:46;;;;;;;3.83;1.92;;;15.00;99.90;;;;;;5056936;28;20174;-79
2022/07/09 03:42:12;;;;;;;4.30;2.25;;;15.00;99.90;;;;;;5039278;28;20253;-79
2022/07/09 03:44:38;;;;;;;4.68;2.22;;;15.00;99.90;;;;;;5038405;28;20281;-79
2022/07/09 03:47:04;;;;;;;5.10;2.33;;;15.00;99.90;;;;;;5039578;28;20190;-79
2022/07/09 03:49:30;;;;;;;7.50;2.45;;;15.00;99.90;;;;;;5039467;28;20175;-79
2022/07/09 03:51:56;;;;;;;3.35;2.05;;;14.90;99.90;;;;;;5042750;28;20182;-79
2022/07/09 03:54:22;;;;;;;7.15;2.45;;;14.90;99.90;;;;;;5041438;28;20243;-79
2022/07/09 03:56:47;;;;;;;5.93;2.15;;;14.80;99.90;;;;;;5041462;28;20649;-79
2022/07/09 03:59:13;;;;;;;4.10;2.10;;;14.70;99.90;;;;;;5042159;28;20185;-79
2022/07/09 04:01:39;;;;;;;4.50;2.13;;;14.70;99.90;;;;;;5042400;28;20286;-79
2022/07/09 04:04:05;;;;;;;6.93;2.30;;;14.70;99.90;;;;;;5041798;28;20221;-79
2022/07/09 04:06:30;;;;;;;4.40;2.00;;;14.70;99.90;;;;;;5042071;28;20178;-79
2022/07/09 04:08:56;;;;;;;3.08;1.83;;;14.70;99.90;;;;;;5041609;28;20180;-79
2022/07/09 04:11:22;;;;;;;5.68;2.15;;;14.90;99.90;;;;;;5042027;28;20178;-79
2022/07/09 04:13:48;;;;;;;5.13;2.00;;;14.90;99.90;;;;;;5041506;28;20202;-79
2022/07/09 04:16:14;;;;;;;5.57;2.03;;;14.80;99.90;;;;;;5041496;28;20231;-79
2022/07/09 04:18:43;;;;;;;4.03;2.00;;;14.80;99.90;;;;;;5040960;28;20277;-79
2022/07/09 04:21:09;;;;;;;3.03;1.98;;;14.90;99.90;;;;;;5040464;28;20182;-79
2022/07/09 04:23:35;;;;;;;9.20;2.03;;;15.00;99.90;;;;;;5040691;28;20344;-79
2022/07/09 04:26:01;;;;;;;5.95;2.45;;;15.10;99.90;;;;;;5041279;28;20206;-79
2022/07/09 04:28:27;;;;;;;4.70;1.90;;;15.30;99.90;;;;;;5040803;28;20243;-79
2022/07/09 04:30:52;;;;;;;4.05;1.95;;;15.30;99.90;;;;;;5040826;28;20234;-79
2022/07/09 04:33:18;;;;;;;2.92;1.90;;;15.40;99.90;;;;;;5040783;28;20268;-79
2022/07/09 04:35:44;;;;;;;1.98;1.77;;;15.30;99.90;;;;;;5040904;28;20178;-79
2022/07/09 04:38:12;;;;;;;3.10;2.17;;;15.20;99.90;;;;;;5058412;28;20174;-79
2022/07/09 04:40:38;;;;;;;6.00;2.50;;;15.10;99.90;;;;;;5058426;28;20174;-79
2022/07/09 04:43:05;;;;;;;4.45;2.13;;;15.10;99.90;;;;;;5040473;28;20177;-79
2022/07/09 04:45:31;;;;;;;4.43;2.38;;;15.10;99.90;;;;;;5057924;28;20253;-79
2022/07/09 04:48:00;;;;;;;6.47;2.05;;;15.40;99.90;;;;;;5040393;28;20178;-79
2022/07/09 04:50:26;;;;;;;4.03;2.15;;;15.50;99.90;;;;;;5040529;28;20206;-79
2022/07/09 04:52:52;;;;;;;2.78;2.22;;;15.60;99.90;;;;;;5040693;28;20205;-79
2022/07/09 04:55:18;;;;;;;8.90;2.15;;;15.70;99.90;;;;;;5040695;28;20206;-79
2022/07/09 04:57:44;;;;;;;9.27;2.55;;;15.90;99.90;;;;;;5040222;28;20212;-79
2022/07/09 05:00:11;;;;;;;11.82;2.47;;;16.00;99.90;;;;;;5039480;28;20236;-79
2022/07/09 05:02:37;;;;;;;11.13;2.58;;;15.90;99.90;;;;;;5040154;28;20174;-79
2022/07/09 05:05:06;;;;;;;5.68;2.33;;;15.90;99.90;;;;;;5039712;28;20255;-79
2022/07/09 05:07:32;;;;;;;7.78;2.00;;;16.00;99.90;;;;;;5058557;28;20186;-79
2022/07/09 05:09:58;;;;;;;2.83;2.00;;;16.30;99.90;;;;;;5041299;28;20236;-79
2022/07/09 05:12:24;;;;;;;8.55;2.30;;;16.50;99.90;;;;;;5040039;28;20240;-79
2022/07/09 05:14:50;;;;;;;6.60;2.50;;;16.60;99.90;;;;;;5040648;28;20198;-79
2022/07/09 05:17:15;;;;;;;2.70;2.30;;;16.90;99.90;;;;;;5039493;28;20217;-79
2022/07/09 05:19:41;;;;;;;5.55;2.50;;;17.10;99.90;;;;;;5039783;28;20189;-79
2022/07/09 05:22:06;;;;;;;3.65;2.42;;;17.40;99.90;;;;;;5039878;28;20706;-79
2022/07/09 05:24:32;;;;;;;3.55;2.00;;;17.70;99.90;;;;;;5039776;28;20206;-79
2022/07/09 05:26:58;;;;;;;2.78;2.20;;;18.10;99.90;;;;;;5039382;28;20217;-79
2022/07/09 05:29:24;;;;;;;2.42;2.20;;;18.50;99.90;;;;;;5057126;28;20556;-79
2022/07/09 05:31:50;;;;;;;4.40;2.20;;;18.70;99.90;;;;;;5039569;28;20257;-79
2022/07/09 05:34:16;;;;;;;4.32;2.28;;;18.90;99.90;;;;;;5038586;28;20252;-79
2022/07/09 05:36:42;;;;;;;4.13;2.30;;;18.90;99.90;;;;;;5038215;28;20186;-79
2022/07/09 05:39:07;;;;;;;4.68;2.55;;;18.90;99.90;;;;;;5038267;28;20178;-79
2022/07/09 05:41:33;;;;;;;3.47;2.35;;;18.90;99.90;;;;;;5038889;28;20236;-79
2022/07/09 05:43:59;;;;;;;4.80;2.33;;;18.80;99.90;;;;;;5037735;28;20282;-79
2022/07/09 05:46:25;;;;;;;8.93;2.25;;;18.70;99.90;;;;;;5038042;28;20182;-79
2022/07/09 05:48:50;;;;;;;2.83;2.47;;;18.80;99.90;;;;;;5038983;28;20182;-79
2022/07/09 05:51:16;;;;;;;5.65;1.90;;;18.80;99.90;;;;;;5037799;28;20174;-79
2022/07/09 05:53:42;;;;;;;5.38;2.03;;;18.80;99.90;;;;;;5037792;28;20228;-79
2022/07/09 05:56:08;;;;;;;3.78;2.22;;;18.90;99.90;;;;;;5037412;28;20178;-79
2022/07/09 05:58:34;;;;;;;3.22;2.30;;;18.90;99.90;;;;;;5039101;28;20320;-79
2022/07/09 06:01:00;;;;;;;4.63;2.50;;;18.90;99.90;;;;;;5038689;28;20660;-79
2022/07/09 06:03:25;;;;;;;4.15;2.13;;;18.90;99.90;;;;;;5038920;28;20186;-79
2022/07/09 06:05:51;;;;;;;4.95;2.20;;;18.90;99.90;;;;;;5039072;28;20181;-79
2022/07/09 06:08:17;;;;;;;4.75;2.22;;;19.00;99.90;;;;;;5037874;28;20173;-79
2022/07/09 06:10:42;;;;;;;7.13;2.58;;;19.20;99.90;;;;;;5037899;28;20174;-79
2022/07/09 06:13:08;;;;;;;3.95;2.28;;;19.10;99.90;;;;;;5038567;28;20174;-79
2022/07/09 06:15:34;;;;;;;4.65;2.40;;;19.40;99.90;;;;;;5039373;28;20197;-79
2022/07/09 06:18:00;;;;;;;4.55;2.28;;;19.60;99.90;;;;;;5037961;28;20177;-79
2022/07/09 06:20:26;;;;;;;4.63;2.45;;;19.90;99.90;;;;;;5037822;28;20250;-79
